<?xml version="1.0" encoding="UTF-8" standalone="no" ?>
<gpx xmlns="http://www.topografix.com/GPX/1/1" xmlns:xsi="http://www.w3.org/2001/XMLSchema-instance" xsi:schemaLocation="http://www.topografix.com/GPX/1/1 http://www.topografix.com/GPX/1/1/gpx.xsd" version="1.1" creator="VisuGPX - https://www.visugpx.com">
  <metadata>
    <name>Vacances 2021</name>
  </metadata>
  <trk>
    <name><![CDATA[Journal actif: 2021-08-02 11:51]]></name>
    <trkseg>
      <trkpt lat="47.68175" lon="-2.77715">
        <ele>43.88</ele>
        <time>2021-08-02T13:51:01Z</time>
      </trkpt>
      <trkpt lat="47.68177" lon="-2.77713">
        <ele>43.88</ele>
        <time>2021-08-02T13:51:26Z</time>
      </trkpt>
      <trkpt lat="47.68182" lon="-2.77706">
        <ele>42.44</ele>
        <time>2021-08-02T13:51:39Z</time>
      </trkpt>
      <trkpt lat="47.68183" lon="-2.77696">
        <ele>42.44</ele>
        <time>2021-08-02T13:51:43Z</time>
      </trkpt>
      <trkpt lat="47.68169" lon="-2.77691">
        <ele>40.99</ele>
        <time>2021-08-02T13:51:50Z</time>
      </trkpt>
      <trkpt lat="47.68127" lon="-2.77675">
        <ele>40.03</ele>
        <time>2021-08-02T13:52:00Z</time>
      </trkpt>
      <trkpt lat="47.68123" lon="-2.77674">
        <ele>40.03</ele>
        <time>2021-08-02T13:52:01Z</time>
      </trkpt>
      <trkpt lat="47.68119" lon="-2.77672">
        <ele>40.03</ele>
        <time>2021-08-02T13:52:02Z</time>
      </trkpt>
      <trkpt lat="47.68114" lon="-2.77671">
        <ele>39.55</ele>
        <time>2021-08-02T13:52:03Z</time>
      </trkpt>
      <trkpt lat="47.68105" lon="-2.77668">
        <ele>39.55</ele>
        <time>2021-08-02T13:52:04Z</time>
      </trkpt>
      <trkpt lat="47.68105" lon="-2.77668">
        <ele>39.55</ele>
        <time>2021-08-02T13:52:05Z</time>
      </trkpt>
      <trkpt lat="47.68099" lon="-2.77667">
        <ele>39.07</ele>
        <time>2021-08-02T13:52:06Z</time>
      </trkpt>
      <trkpt lat="47.68094" lon="-2.77665">
        <ele>39.07</ele>
        <time>2021-08-02T13:52:07Z</time>
      </trkpt>
      <trkpt lat="47.68088" lon="-2.77663">
        <ele>39.07</ele>
        <time>2021-08-02T13:52:08Z</time>
      </trkpt>
      <trkpt lat="47.6799" lon="-2.77666">
        <ele>36.67</ele>
        <time>2021-08-02T13:52:22Z</time>
      </trkpt>
      <trkpt lat="47.67857" lon="-2.7767">
        <ele>34.26</ele>
        <time>2021-08-02T13:52:38Z</time>
      </trkpt>
      <trkpt lat="47.6785" lon="-2.7767">
        <ele>34.26</ele>
        <time>2021-08-02T13:52:39Z</time>
      </trkpt>
      <trkpt lat="47.67843" lon="-2.77671">
        <ele>34.26</ele>
        <time>2021-08-02T13:52:40Z</time>
      </trkpt>
      <trkpt lat="47.67834" lon="-2.77669">
        <ele>33.78</ele>
        <time>2021-08-02T13:52:41Z</time>
      </trkpt>
      <trkpt lat="47.67749" lon="-2.77604">
        <ele>32.34</ele>
        <time>2021-08-02T13:52:52Z</time>
      </trkpt>
      <trkpt lat="47.67715" lon="-2.7758">
        <ele>31.38</ele>
        <time>2021-08-02T13:52:59Z</time>
      </trkpt>
      <trkpt lat="47.67676" lon="-2.77556">
        <ele>30.9</ele>
        <time>2021-08-02T13:53:05Z</time>
      </trkpt>
      <trkpt lat="47.67671" lon="-2.77554">
        <ele>30.9</ele>
        <time>2021-08-02T13:53:06Z</time>
      </trkpt>
      <trkpt lat="47.67671" lon="-2.77543">
        <ele>30.42</ele>
        <time>2021-08-02T13:53:07Z</time>
      </trkpt>
      <trkpt lat="47.67672" lon="-2.77537">
        <ele>30.42</ele>
        <time>2021-08-02T13:53:08Z</time>
      </trkpt>
      <trkpt lat="47.67673" lon="-2.77531">
        <ele>29.94</ele>
        <time>2021-08-02T13:53:09Z</time>
      </trkpt>
      <trkpt lat="47.67673" lon="-2.77531">
        <ele>29.94</ele>
        <time>2021-08-02T13:53:10Z</time>
      </trkpt>
      <trkpt lat="47.67674" lon="-2.77524">
        <ele>29.46</ele>
        <time>2021-08-02T13:53:11Z</time>
      </trkpt>
      <trkpt lat="47.67675" lon="-2.77517">
        <ele>28.98</ele>
        <time>2021-08-02T13:53:12Z</time>
      </trkpt>
      <trkpt lat="47.67673" lon="-2.77501">
        <ele>28.98</ele>
        <time>2021-08-02T13:53:13Z</time>
      </trkpt>
      <trkpt lat="47.67673" lon="-2.77501">
        <ele>28.02</ele>
        <time>2021-08-02T13:53:14Z</time>
      </trkpt>
      <trkpt lat="47.67672" lon="-2.77495">
        <ele>27.53</ele>
        <time>2021-08-02T13:53:15Z</time>
      </trkpt>
      <trkpt lat="47.6767" lon="-2.77489">
        <ele>27.53</ele>
        <time>2021-08-02T13:53:16Z</time>
      </trkpt>
      <trkpt lat="47.67665" lon="-2.7747">
        <ele>26.09</ele>
        <time>2021-08-02T13:53:25Z</time>
      </trkpt>
      <trkpt lat="47.67661" lon="-2.77463">
        <ele>26.57</ele>
        <time>2021-08-02T13:53:51Z</time>
      </trkpt>
      <trkpt lat="47.67648" lon="-2.77456">
        <ele>26.57</ele>
        <time>2021-08-02T13:53:54Z</time>
      </trkpt>
      <trkpt lat="47.67644" lon="-2.77449">
        <ele>26.09</ele>
        <time>2021-08-02T13:53:55Z</time>
      </trkpt>
      <trkpt lat="47.67642" lon="-2.77441">
        <ele>26.09</ele>
        <time>2021-08-02T13:53:56Z</time>
      </trkpt>
      <trkpt lat="47.6764" lon="-2.77432">
        <ele>25.61</ele>
        <time>2021-08-02T13:53:57Z</time>
      </trkpt>
      <trkpt lat="47.67641" lon="-2.77423">
        <ele>25.13</ele>
        <time>2021-08-02T13:53:58Z</time>
      </trkpt>
      <trkpt lat="47.67641" lon="-2.77413">
        <ele>25.61</ele>
        <time>2021-08-02T13:53:59Z</time>
      </trkpt>
      <trkpt lat="47.67644" lon="-2.77407">
        <ele>25.61</ele>
        <time>2021-08-02T13:54:00Z</time>
      </trkpt>
      <trkpt lat="47.67648" lon="-2.774">
        <ele>25.61</ele>
        <time>2021-08-02T13:54:01Z</time>
      </trkpt>
      <trkpt lat="47.67651" lon="-2.77394">
        <ele>25.61</ele>
        <time>2021-08-02T13:54:02Z</time>
      </trkpt>
      <trkpt lat="47.67652" lon="-2.77392">
        <ele>25.61</ele>
        <time>2021-08-02T13:54:03Z</time>
      </trkpt>
      <trkpt lat="47.67652" lon="-2.77376">
        <ele>25.61</ele>
        <time>2021-08-02T13:54:04Z</time>
      </trkpt>
      <trkpt lat="47.67652" lon="-2.77368">
        <ele>25.61</ele>
        <time>2021-08-02T13:54:05Z</time>
      </trkpt>
      <trkpt lat="47.67651" lon="-2.77359">
        <ele>25.61</ele>
        <time>2021-08-02T13:54:06Z</time>
      </trkpt>
      <trkpt lat="47.67651" lon="-2.7735">
        <ele>25.13</ele>
        <time>2021-08-02T13:54:07Z</time>
      </trkpt>
      <trkpt lat="47.67648" lon="-2.77316">
        <ele>25.61</ele>
        <time>2021-08-02T13:54:13Z</time>
      </trkpt>
      <trkpt lat="47.6765" lon="-2.77325">
        <ele>25.13</ele>
        <time>2021-08-02T13:54:14Z</time>
      </trkpt>
      <trkpt lat="47.67648" lon="-2.77316">
        <ele>25.13</ele>
        <time>2021-08-02T13:54:15Z</time>
      </trkpt>
      <trkpt lat="47.67648" lon="-2.77316">
        <ele>25.13</ele>
        <time>2021-08-02T13:54:16Z</time>
      </trkpt>
      <trkpt lat="47.67648" lon="-2.77319">
        <ele>24.65</ele>
        <time>2021-08-02T13:54:17Z</time>
      </trkpt>
      <trkpt lat="47.67651" lon="-2.77327">
        <ele>24.65</ele>
        <time>2021-08-02T13:54:18Z</time>
      </trkpt>
      <trkpt lat="47.67651" lon="-2.77327">
        <ele>24.65</ele>
        <time>2021-08-02T13:54:19Z</time>
      </trkpt>
      <trkpt lat="47.67669" lon="-2.7738">
        <ele>25.13</ele>
        <time>2021-08-02T13:54:33Z</time>
      </trkpt>
      <trkpt lat="47.67669" lon="-2.7738">
        <ele>25.13</ele>
        <time>2021-08-02T13:54:58Z</time>
      </trkpt>
    </trkseg>
  </trk>
</gpx>